Time;durP1;ratioP1;P1;durP2;ratioP2;P2;SDS_P1;SDS_P2;PMS_P1;PMS_P2;Temp;Humidity;BMP_temperature;BMP_pressure;BME280_temperature;BME280_humidity;BME280_pressure;Samples;Min_cycle;Max_cycle;Signal;HPM_P1;HPM_P2
2021/06/20 00:00:00;;;;;;;10.85;9.32;;;;;;;;;;5072084;28;20028;-81
2021/06/20 00:02:26;;;;;;;9.85;8.43;;;;;;;;;;5072132;28;20036;-80
2021/06/20 00:04:52;;;;;;;9.55;8.07;;;;;;;;;;5073914;28;20052;-75
2021/06/20 00:07:18;;;;;;;11.07;8.48;;;;;;;;;;5075744;28;20033;-69
2021/06/20 00:09:44;;;;;;;8.65;7.82;;;;;;;;;;5075334;28;20059;-81
2021/06/20 00:12:10;;;;;;;11.63;8.52;;;;;;;;;;5075584;28;20028;-81
2021/06/20 00:14:36;;;;;;;11.50;8.85;;;;;;;;;;5075537;28;20028;-81
2021/06/20 00:17:02;;;;;;;10.30;8.77;;;;;;;;;;5075469;28;20385;-81
2021/06/20 00:19:28;;;;;;;13.90;8.70;;;;;;;;;;5075325;28;20031;-69
2021/06/20 00:21:54;;;;;;;12.68;8.55;;;;;;;;;;5075237;28;20032;-80
2021/06/20 00:24:20;;;;;;;12.25;8.60;;;;;;;;;;5075702;28;20403;-81
2021/06/20 00:26:46;;;;;;;10.38;8.57;;;;;;;;;;5074193;28;20029;-80
2021/06/20 00:29:12;;;;;;;11.18;8.35;;;;;;;;;;5075431;28;20024;-78
2021/06/20 00:31:38;;;;;;;14.35;8.60;;;;;;;;;;5075114;28;20036;-69
2021/06/20 00:34:04;;;;;;;10.77;8.80;;;;;;;;;;5073931;28;20500;-81
2021/06/20 00:36:30;;;;;;;9.85;8.38;;;;;;;;;;5075123;28;20028;-80
2021/06/20 00:38:56;;;;;;;11.50;8.43;;;;;;;;;;5074940;28;20023;-81
2021/06/20 00:41:22;;;;;;;10.85;8.50;;;;;;;;;;5074672;28;20028;-79
2021/06/20 00:43:48;;;;;;;11.70;8.93;;;;;;;;;;5074704;28;20045;-78
2021/06/20 00:46:14;;;;;;;11.70;8.13;;;;;;;;;;5074964;28;20020;-76
2021/06/20 00:48:40;;;;;;;9.38;8.48;;;;;;;;;;5074809;28;20099;-70
2021/06/20 00:51:06;;;;;;;11.60;8.73;;;;;;;;;;5074876;28;20099;-75
2021/06/20 00:53:33;;;;;;;10.68;8.23;;;;;;;;;;5074832;28;20021;-81
2021/06/20 00:55:59;;;;;;;9.98;8.57;;;;;;;;;;5074421;28;20477;-81
2021/06/20 00:58:25;;;;;;;12.50;8.65;;;;;;;;;;5073207;28;20028;-76
2021/06/20 01:00:51;;;;;;;13.45;9.25;;;;;;;;;;5071793;28;20041;-69
2021/06/20 01:03:17;;;;;;;9.77;8.80;;;;;;;;;;5071874;28;20020;-70
2021/06/20 01:05:43;;;;;;;12.63;8.88;;;;;;;;;;5073910;28;20035;-78
2021/06/20 01:08:10;;;;;;;12.45;9.13;;;;;;;;;;5074274;28;20031;-69
2021/06/20 01:10:37;;;;;;;9.70;8.70;;;;;;;;;;5074293;28;20031;-70
2021/06/20 01:13:04;;;;;;;10.20;8.57;;;;;;;;;;5073951;28;20032;-70
2021/06/20 01:15:31;;;;;;;9.75;8.75;;;;;;;;;;5074098;28;20027;-69
2021/06/20 01:17:57;;;;;;;14.90;8.88;;;;;;;;;;5074183;28;20032;-69
2021/06/20 01:20:23;;;;;;;10.75;8.77;;;;;;;;;;5073650;28;20078;-70
2021/06/20 01:22:51;;;;;;;11.30;10.07;;;;;;;;;;5074001;28;20489;-70
2021/06/20 01:25:20;;;;;;;13.00;9.63;;;;;;;;;;5074319;28;20034;-80
2021/06/20 01:27:57;;;;;;;11.70;9.65;;;;;;;;;;5072613;28;20127;-77
2021/06/20 01:30:25;;;;;;;12.05;8.60;;;;;;;;;;5073663;28;20032;-74
2021/06/20 01:32:51;;;;;;;11.05;9.50;;;;;;;;;;5073973;28;20032;-70
2021/06/20 01:35:17;;;;;;;12.25;9.85;;;;;;;;;;5073705;28;20020;-74
2021/06/20 01:37:44;;;;;;;16.25;10.35;;;;;;;;;;5073760;28;20056;-80
2021/06/20 01:40:12;;;;;;;11.32;10.00;;;;;;;;;;5073605;28;20492;-78
2021/06/20 01:42:38;;;;;;;12.40;9.60;;;26.00;70.10;;;;;;5073559;28;20504;-79
2021/06/20 01:45:05;;;;;;;12.55;10.70;;;25.50;80.50;;;;;;5073759;28;20069;-79
2021/06/20 01:47:31;;;;;;;15.30;10.30;;;25.30;78.40;;;;;;5073741;28;20085;-80
2021/06/20 01:49:59;;;;;;;12.60;9.80;;;25.40;78.50;;;;;;5073611;28;20025;-79
2021/06/20 01:52:26;;;;;;;13.20;9.80;;;;;;;;;;5073465;28;20024;-69
2021/06/20 01:54:53;;;;;;;14.43;10.77;;;;;;;;;;5073545;28;20476;-74
2021/06/20 01:57:25;;;;;;;13.00;10.02;;;;;;;;;;5073522;28;20027;-72
2021/06/20 01:59:51;;;;;;;17.40;10.48;;;;;;;;;;5073200;28;20457;-70
2021/06/20 02:02:17;;;;;;;15.40;10.05;;;;;;;;;;5073384;28;20048;-78
2021/06/20 02:04:44;;;;;;;15.70;9.55;;;;;;;;;;5073550;28;20021;-80
2021/06/20 02:07:10;;;;;;;14.98;10.10;;;;;;;;;;5073211;28;20032;-78
2021/06/20 02:09:37;;;;;;;15.27;9.38;;;;;;;;;;5073252;28;20012;-80
2021/06/20 02:12:03;;;;;;;14.75;9.52;;;;;;;;;;5073359;28;20499;-70
2021/06/20 02:14:29;;;;;;;12.32;10.05;;;;;;;;;;5073459;28;20024;-76
2021/06/20 02:16:55;;;;;;;12.25;9.00;;;;;;;;;;5073448;28;20064;-81
2021/06/20 02:19:21;;;;;;;11.02;9.30;;;;;;;;;;5073201;28;20024;-81
2021/06/20 02:21:48;;;;;;;10.73;9.25;;;;;;;;;;5073342;28;20032;-81
2021/06/20 02:24:14;;;;;;;11.07;9.80;;;;;;;;;;5073110;28;20023;-80
2021/06/20 02:26:40;;;;;;;13.73;10.25;;;;;;;;;;5072564;28;20059;-81
2021/06/20 02:29:06;;;;;;;10.73;9.18;;;;;;;;;;5073055;28;20568;-81
2021/06/20 02:31:32;;;;;;;10.00;9.00;;;;;;;;;;5073191;28;20063;-82
2021/06/20 02:33:58;;;;;;;10.50;9.40;;;;;;;;;;5073013;28;20016;-80
2021/06/20 02:36:24;;;;;;;13.95;9.77;;;;;;;;;;5072832;28;20025;-81
2021/06/20 02:38:50;;;;;;;14.88;10.50;;;;;;;;;;5072893;28;20021;-69
2021/06/20 02:41:16;;;;;;;13.40;10.27;;;;;;;;;;5072708;28;20370;-81
2021/06/20 02:43:42;;;;;;;11.35;9.27;;;;;;;;;;5072829;28;20021;-81
2021/06/20 02:46:08;;;;;;;11.00;9.93;;;;;;;;;;5072836;28;20488;-69
2021/06/20 02:48:34;;;;;;;13.30;10.13;;;;;;;;;;5073072;28;20078;-69
2021/06/20 02:51:00;;;;;;;16.30;10.10;;;;;;;;;;5072708;28;20556;-79
2021/06/20 02:53:26;;;;;;;13.20;9.43;;;;;;;;;;5072868;28;20067;-80
2021/06/20 02:55:52;;;;;;;15.45;11.00;;;;;;;;;;5072590;28;20058;-81
2021/06/20 02:58:18;;;;;;;12.38;10.45;;;;;;;;;;5072804;28;20029;-81
2021/06/20 03:00:44;;;;;;;13.90;10.40;;;;;;;;;;5072622;28;20512;-73
2021/06/20 03:03:10;;;;;;;12.38;11.10;;;;;;;;;;5072360;28;20024;-80
2021/06/20 03:05:36;;;;;;;13.15;10.68;;;;;;;;;;5072779;28;20029;-80
2021/06/20 03:08:02;;;;;;;15.43;11.25;;;;;;;;;;5072629;28;20095;-80
2021/06/20 03:10:28;;;;;;;11.07;10.00;;;;;;;;;;5072719;28;20082;-80
2021/06/20 03:12:54;;;;;;;11.77;10.20;;;;;;;;;;5072860;28;20062;-80
2021/06/20 03:15:20;;;;;;;12.40;10.98;;;;;;;;;;5073301;28;20415;-80
2021/06/20 03:17:47;;;;;;;14.27;10.30;;;;;;;;;;5072532;28;20020;-81
2021/06/20 03:20:13;;;;;;;13.93;10.10;;;;;;;;;;5072588;28;20566;-71
2021/06/20 03:22:39;;;;;;;12.85;10.82;;;;;;;;;;5072027;28;20523;-79
2021/06/20 03:25:05;;;;;;;12.52;10.40;;;;;;;;;;5072195;28;20021;-81
2021/06/20 03:27:31;;;;;;;11.90;10.50;;;;;;;;;;5072379;28;20052;-73
2021/06/20 03:29:57;;;;;;;12.05;10.77;;;;;;;;;;5072198;28;20020;-80
2021/06/20 03:32:24;;;;;;;15.27;10.88;;;;;;;;;;5072206;28;20418;-69
2021/06/20 03:34:50;;;;;;;13.77;10.52;;;;;;;;;;5072052;28;20107;-69
2021/06/20 03:37:16;;;;;;;13.52;11.35;;;;;;;;;;5072343;28;20024;-69
2021/06/20 03:39:42;;;;;;;11.43;10.27;;;;;;;;;;5073729;28;20055;-80
2021/06/20 03:42:08;;;;;;;14.55;11.27;;;;;;;;;;5075964;28;20480;-81
2021/06/20 03:44:34;;;;;;;13.98;11.40;;;;;;;;;;5075993;28;20080;-73
2021/06/20 03:47:01;;;;;;;13.23;11.82;;;;;;;;;;5076060;28;20115;-78
2021/06/20 03:49:27;;;;;;;12.18;10.88;;;;;;;;;;5075531;28;20036;-69
2021/06/20 03:51:53;;;;;;;12.38;10.70;;;;;;;;;;5075869;28;20055;-80
2021/06/20 03:54:20;;;;;;;12.15;10.95;;;;;;;;;;5075822;28;20017;-69
2021/06/20 03:56:46;;;;;;;15.40;11.40;;;;;;;;;;5076119;28;20421;-79
2021/06/20 03:59:13;;;;;;;14.32;11.07;;;;;;;;;;5075804;28;20070;-80
2021/06/20 04:01:39;;;;;;;12.30;11.07;;;;;;;;;;5075795;28;20036;-80
2021/06/20 04:04:05;;;;;;;13.70;10.90;;;;;;;;;;5076058;28;20024;-80
2021/06/20 04:06:31;;;;;;;15.02;11.50;;;;;;;;;;5075682;28;20032;-80
2021/06/20 04:08:57;;;;;;;12.85;11.60;;;;;;;;;;5075397;28;20154;-72
2021/06/20 04:11:23;;;;;;;13.13;11.38;;;;;;;;;;5075543;28;20020;-73
2021/06/20 04:13:49;;;;;;;13.10;11.65;;;;;;;;;;5075414;28;20021;-70
2021/06/20 04:16:15;;;;;;;15.02;11.65;;;;;;;;;;5075913;28;20484;-70
2021/06/20 04:18:41;;;;;;;13.77;11.00;;;;;;;;;;5075995;28;20020;-69
2021/06/20 04:21:07;;;;;;;13.32;11.52;;;;;;;;;;5075409;28;20551;-79
2021/06/20 04:23:33;;;;;;;12.98;11.48;;;;;;;;;;5075573;28;20024;-70
2021/06/20 04:25:59;;;;;;;15.98;11.57;;;;;;;;;;5075321;28;20079;-69
2021/06/20 04:28:25;;;;;;;24.00;16.45;;;;;;;;;;5075409;28;20051;-70
2021/06/20 04:30:56;;;;;;;30.42;22.15;;;;;;;;;;5075282;28;20370;-78
2021/06/20 04:33:23;;;;;;;32.30;22.13;;;;;;;;;;5075342;28;20540;-80
2021/06/20 04:35:50;;;;;;;32.55;20.30;;;;;;;;;;5074939;28;20378;-80
2021/06/20 04:38:16;;;;;;;23.90;16.38;;;;;;;;;;5075280;28;20029;-80
2021/06/20 04:40:42;;;;;;;18.10;14.43;;;;;;;;;;5074792;28;20067;-80
2021/06/20 04:43:10;;;;;;;19.83;13.30;;;;;;;;;;5075171;28;20020;-79
2021/06/20 04:45:36;;;;;;;17.35;13.05;;;;;;;;;;5074969;28;20017;-76
2021/06/20 04:48:02;;;;;;;14.00;12.57;;;;;;;;;;5074893;28;20484;-81
2021/06/20 04:50:28;;;;;;;15.65;13.30;;;;;;;;;;5074272;28;20017;-78
2021/06/20 04:52:55;;;;;;;18.27;13.35;;;;;;;;;;5074685;28;20109;-76
2021/06/20 04:55:21;;;;;;;22.50;12.77;;;;;;;;;;5075014;28;20407;-80
2021/06/20 04:57:47;;;;;;;19.45;14.07;;;;;;;;;;5074866;28;20035;-69
2021/06/20 05:00:14;;;;;;;19.67;14.88;;;;;;;;;;5074420;28;20024;-80
2021/06/20 05:02:40;;;;;;;18.70;14.60;;;;;;;;;;5074470;28;20024;-69
2021/06/20 05:05:06;;;;;;;22.45;13.93;;;;;;;;;;5074599;28;20096;-68
2021/06/20 05:07:32;;;;;;;18.92;14.02;;;;;;;;;;5072832;28;20074;-91
2021/06/20 05:09:59;;;;;;;17.38;13.20;;;;;;;;;;5075188;28;20021;-71
2021/06/20 05:12:25;;;;;;;16.75;13.25;;;;;;;;;;5074650;28;20546;-75
2021/06/20 05:14:51;;;;;;;14.80;12.77;;;;;;;;;;5073772;28;20371;-71
2021/06/20 05:17:18;;;;;;;18.02;13.10;;;;;;;;;;5073419;28;20024;-70
2021/06/20 05:19:44;;;;;;;16.73;12.68;;;;;;;;;;5072689;28;20016;-70
2021/06/20 05:22:13;;;;;;;14.00;12.15;;;;;;;;;;5073013;28;20033;-70
2021/06/20 05:24:40;;;;;;;16.90;12.40;;;;;;;;;;5074346;28;20128;-70
2021/06/20 05:27:06;;;;;;;14.75;12.30;;;;;;;;;;5073814;28;20032;-71
2021/06/20 05:29:32;;;;;;;17.10;11.85;;;;;;;;;;5074020;28;20036;-85
2021/06/20 05:31:58;;;;;;;15.45;12.23;;;;;;;;;;5073797;28;20024;-70
2021/06/20 05:34:24;;;;;;;15.73;11.52;;;;;;;;;;5073913;28;20024;-71
2021/06/20 05:36:50;;;;;;;19.02;11.43;;;;;;;;;;5074381;28;20020;-70
2021/06/20 05:39:16;;;;;;;13.82;12.32;;;;;;;;;;5074073;28;20048;-70
2021/06/20 05:41:43;;;;;;;14.38;11.77;;;;;;;;;;5074200;28;20039;-71
2021/06/20 05:44:09;;;;;;;13.60;11.43;;;;;;;;;;5074129;28;20485;-70
2021/06/20 05:46:35;;;;;;;13.55;11.27;;;;;;;;;;5072704;28;20033;-71
2021/06/20 05:49:01;;;;;;;14.57;11.70;;;;;;;;;;5072437;28;20385;-70
2021/06/20 05:51:27;;;;;;;13.90;10.63;;;;;;;;;;5074151;28;20028;-70
2021/06/20 05:53:53;;;;;;;16.80;11.55;;;;;;;;;;5074003;28;20024;-70
2021/06/20 05:56:20;;;;;;;13.77;11.57;;;;;;;;;;5074241;28;20029;-70
2021/06/20 05:58:46;;;;;;;12.93;10.25;;;;;;;;;;5072457;28;20127;-70
2021/06/20 06:01:12;;;;;;;13.13;10.95;;;;;;;;;;5072068;28;20433;-70
2021/06/20 06:03:38;;;;;;;16.02;10.90;;;;;;;;;;5073675;28;20377;-70
2021/06/20 06:06:04;;;;;;;13.75;11.00;;;;;;;;;;5074071;28;20025;-70
2021/06/20 06:08:31;;;;;;;12.60;10.93;;;;;;;;;;5073808;28;20025;-70
2021/06/20 06:10:57;;;;;;;11.20;10.10;;;;;;;;;;5073619;28;20103;-70
2021/06/20 06:13:23;;;;;;;14.23;10.98;;;;;;;;;;5073656;28;20059;-71
2021/06/20 06:15:49;;;;;;;14.25;12.15;;;;;;;;;;5073617;28;20024;-70
2021/06/20 06:18:15;;;;;;;14.57;10.93;;;;;;;;;;5073546;28;20028;-71
2021/06/20 06:20:41;;;;;;;12.18;11.05;;;;;;;;;;5073510;28;20447;-85
2021/06/20 06:23:09;;;;;;;13.75;11.15;;;;;;;;;;5073551;28;20031;-70
2021/06/20 06:25:36;;;;;;;14.23;10.85;;;;;;;;;;5073540;28;20028;-71
2021/06/20 06:28:02;;;;;;;13.43;10.57;;;;;;;;;;5073508;28;20040;-72
2021/06/20 06:30:28;;;;;;;12.40;10.23;;;;;;;;;;5073195;28;20023;-70
2021/06/20 06:32:54;;;;;;;12.50;9.77;;;;;;;;;;5072912;28;20021;-71
2021/06/20 06:35:20;;;;;;;17.23;10.32;;;;;;;;;;5074523;28;20025;-85
2021/06/20 06:37:46;;;;;;;27.30;12.15;;;;;;;;;;5073449;28;20038;-70
2021/06/20 06:40:12;;;;;;;16.23;11.23;;;;;;;;;;5072961;28;20404;-70
2021/06/20 06:42:39;;;;;;;17.88;11.32;;;;;;;;;;5073048;28;20547;-70
2021/06/20 06:45:06;;;;;;;14.73;11.02;;;;;;;;;;5073250;28;20481;-71
2021/06/20 06:47:34;;;;;;;12.02;10.35;;;;;;;;;;5073275;28;20025;-71
2021/06/20 06:50:00;;;;;;;11.32;10.02;;;;;;;;;;5073094;28;20020;-71
2021/06/20 06:52:26;;;;;;;12.02;10.50;;;;;;;;;;5072978;28;20383;-70
2021/06/20 06:54:53;;;;;;;14.30;10.38;;;;;;;;;;5073255;28;20431;-70
2021/06/20 06:57:19;;;;;;;13.15;10.50;;;;;;;;;;5071891;28;20028;-72
2021/06/20 06:59:45;;;;;;;12.68;10.23;;;;;;;;;;5070320;28;20563;-72
2021/06/20 07:02:12;;;;;;;12.52;10.48;;;;;;;;;;5069910;28;20059;-72
2021/06/20 07:04:38;;;;;;;13.52;10.68;;;;;;;;;;5072153;28;20017;-71
2021/06/20 07:07:04;;;;;;;11.27;10.20;;;;;;;;;;5072920;28;20146;-72
2021/06/20 07:09:30;;;;;;;15.32;10.80;;;;;;;;;;5072858;28;20090;-72
2021/06/20 07:11:58;;;;;;;13.57;10.90;;;;;;;;;;5070970;28;20036;-71
2021/06/20 07:14:24;;;;;;;17.02;10.98;;;;;;;;;;5072813;28;20481;-71
2021/06/20 07:16:50;;;;;;;15.13;10.32;;;;;;;;;;5075230;28;20089;-71
2021/06/20 07:19:16;;;;;;;13.65;10.75;;;;;;;;;;5076560;28;20024;-70
2021/06/20 07:21:42;;;;;;;11.98;10.00;;;;;;;;;;5076709;28;20500;-71
2021/06/20 07:24:09;;;;;;;12.35;11.05;;;;;;;;;;5076713;28;20415;-71
2021/06/20 07:26:35;;;;;;;15.13;9.77;;;;;;;;;;5076671;28;20033;-71
2021/06/20 07:29:02;;;;;;;12.18;10.25;;;;;;;;;;5076154;28;20032;-70
2021/06/20 07:31:28;;;;;;;15.45;11.65;;;;;;;;;;5076816;28;20388;-70
2021/06/20 07:33:54;;;;;;;17.08;12.45;;;;;;;;;;5076508;28;20025;-70
2021/06/20 07:36:20;;;;;;;19.05;12.25;;;;;;;;;;5076738;28;20078;-80
2021/06/20 07:38:46;;;;;;;21.42;12.30;;;;;;;;;;5076239;28;20035;-71
2021/06/20 07:41:13;;;;;;;15.30;12.20;;;;;;;;;;5076084;28;20169;-70
2021/06/20 07:43:39;;;;;;;11.93;10.70;;;;;;;;;;5076204;28;20353;-71
2021/06/20 07:46:05;;;;;;;13.10;10.90;;;;;;;;;;5076418;28;20461;-75
2021/06/20 07:48:31;;;;;;;14.60;10.00;;;;;;;;;;5076429;28;20032;-72
2021/06/20 07:50:58;;;;;;;18.25;10.88;;;;;;;;;;5076322;28;20052;-70
2021/06/20 07:53:24;;;;;;;12.40;10.40;;;;;;;;;;5074857;28;20028;-71
2021/06/20 07:55:51;;;;;;;13.02;10.52;;;;;;;;;;5075973;28;20028;-71
2021/06/20 07:58:17;;;;;;;12.25;11.02;;;;;;;;;;5075862;28;20020;-70
2021/06/20 08:00:43;;;;;;;16.08;10.98;;;;;;;;;;5075829;28;20052;-70
2021/06/20 08:03:09;;;;;;;13.07;10.88;;;;;;;;;;5075833;28;20034;-70
2021/06/20 08:05:35;;;;;;;13.10;10.50;;;;;;;;;;5076398;28;20026;-80
2021/06/20 08:08:01;;;;;;;13.07;9.95;;;;;;;;;;5075822;28;20028;-84
2021/06/20 08:10:28;;;;;;;12.85;10.40;;;;;;;;;;5075527;28;20021;-86
2021/06/20 08:12:54;;;;;;;12.50;9.35;;;;;;;;;;5076030;28;20067;-71
2021/06/20 08:15:20;;;;;;;13.75;9.82;;;;;;;;;;5074821;28;20016;-70
2021/06/20 08:17:46;;;;;;;11.15;9.60;;;;;;;;;;5074965;28;20031;-85
2021/06/20 08:20:12;;;;;;;10.35;9.23;;;;;;;;;;5074104;28;20032;-70
2021/06/20 08:22:39;;;;;;;12.07;9.20;;;;;;;;;;5074291;28;20036;-70
2021/06/20 08:25:07;;;;;;;12.05;9.80;;;;;;;;;;5073853;28;20020;-71
2021/06/20 08:27:33;;;;;;;13.30;9.80;;;;;;;;;;5073947;28;20033;-71
2021/06/20 08:30:00;;;;;;;12.63;10.07;;;;;;;;;;5074979;28;20031;-71
2021/06/20 08:32:29;;;;;;;16.70;9.38;;;;;;;;;;5075122;28;20040;-71
2021/06/20 08:34:55;;;;;;;12.45;9.80;;;;;;;;;;5074990;28;20029;-70
2021/06/20 08:37:21;;;;;;;13.27;9.00;;;;;;;;;;5075061;28;20016;-71
2021/06/20 08:39:47;;;;;;;12.75;10.00;;;;;;;;;;5075382;28;20057;-71
2021/06/20 08:42:13;;;;;;;15.15;9.63;;;;;;;;;;5075209;28;20044;-71
2021/06/20 08:44:39;;;;;;;12.55;9.98;;;;;;;;;;5075416;28;20048;-71
2021/06/20 08:47:05;;;;;;;14.10;9.82;;;;;;;;;;5075143;28;20029;-71
2021/06/20 08:49:32;;;;;;;17.38;10.45;;;;;;;;;;5075208;28;20016;-72
2021/06/20 08:51:59;;;;;;;13.38;10.65;;;;;;;;;;5075036;28;20025;-72
2021/06/20 08:54:25;;;;;;;18.75;11.30;;;;;;;;;;5075116;28;20047;-72
2021/06/20 08:56:52;;;;;;;15.00;10.10;;;;;;;;;;5074518;28;20025;-71
2021/06/20 08:59:18;;;;;;;15.68;12.15;;;;;;;;;;5074110;28;20029;-70
2021/06/20 09:01:44;;;;;;;22.85;10.98;;;;;;;;;;5073560;28;20127;-71
2021/06/20 09:04:13;;;;;;;15.90;11.52;;;;;;;;;;5074233;28;20021;-75
2021/06/20 09:06:39;;;;;;;20.52;10.20;;;;;;;;;;5073734;28;20101;-72
2021/06/20 09:09:09;;;;;;;12.68;10.73;;;;;;;;;;5073094;28;20434;-71
2021/06/20 09:11:40;;;;;;;18.20;11.40;;;;;;;;;;5073265;28;20067;-71
2021/06/20 09:14:10;;;;;;;14.95;10.43;;;;;;;;;;5072887;28;20028;-81
2021/06/20 09:16:45;;;;;;;15.18;11.60;;;;;;;;;;5074615;28;20035;-71
2021/06/20 09:19:11;;;;;;;25.15;11.45;;;;;;;;;;5072859;28;20027;-72
2021/06/20 09:21:37;;;;;;;13.52;10.77;;;;;;;;;;5074035;28;20162;-71
2021/06/20 09:24:03;;;;;;;16.52;10.60;;;;;;;;;;5074096;28;20063;-71
2021/06/20 09:26:40;;;;;;;13.95;10.65;;;;;;;;;;5074441;28;20021;-71
2021/06/20 09:29:07;;;;;;;15.88;11.25;;;;;;;;;;5074279;28;20028;-71
2021/06/20 09:31:53;;;;;;;16.92;11.63;;;;;;;;;;5074637;28;20381;-72
2021/06/20 09:34:19;;;;;;;12.32;10.48;;;;;;;;;;5074591;28;20016;-72
2021/06/20 09:36:46;;;;;;;17.17;10.60;;;;;;;;;;5074127;28;20103;-72
2021/06/20 09:39:19;;;;;;;14.70;10.80;;;;;;;;;;5073902;28;20028;-71
2021/06/20 09:41:55;;;;;;;20.30;10.77;;;;;;;;;;5074166;28;20032;-71
2021/06/20 09:44:31;;;;;;;16.55;10.82;;;;;;;;;;5074145;28;20355;-72
2021/06/20 09:46:57;;;;;;;15.23;9.85;;;;;;;;;;5073888;28;20032;-71
2021/06/20 09:49:30;;;;;;;17.60;10.85;;;;;;;;;;5074059;28;20024;-71
2021/06/20 09:51:57;;;;;;;18.42;11.70;;;;;;;;;;5074255;28;20112;-71
2021/06/20 09:54:33;;;;;;;16.23;10.57;;;;;;;;;;5073887;28;20024;-71
2021/06/20 09:56:59;;;;;;;16.50;11.52;;;;;;;;;;5074179;28;20039;-71
2021/06/20 09:59:30;;;;;;;13.75;10.95;;;;;;;;;;5073605;28;20029;-72
2021/06/20 10:02:06;;;;;;;16.90;11.05;;;;;;;;;;5073742;28;20435;-71
2021/06/20 10:04:34;;;;;;;14.82;11.85;;;;;;;;;;5073815;28;20024;-88
2021/06/20 10:07:00;;;;;;;16.35;10.68;;;;;;;;;;5074234;28;20384;-88
2021/06/20 10:09:26;;;;;;;12.80;9.70;;;;;;;;;;5073813;28;20020;-72
2021/06/20 10:11:52;;;;;;;11.65;10.07;;;;;;;;;;5073629;28;20024;-71
2021/06/20 10:14:19;;;;;;;17.20;10.50;;;;;;;;;;5073783;28;20027;-87
2021/06/20 10:16:49;;;;;;;16.05;9.70;;;;;;;;;;5073420;28;20032;-80
2021/06/20 10:19:23;;;;;;;14.60;9.88;;;;;;;;;;5073212;28;20108;-71
2021/06/20 10:22:06;;;;;;;13.68;9.10;;;;;;;;;;5072713;28;20033;-71
2021/06/20 10:24:43;;;;;;;13.27;8.82;;;;;;;;;;5073525;28;20055;-89
2021/06/20 10:27:09;;;;;;;19.65;9.43;;;;;;;;;;5073226;28;20090;-71
2021/06/20 10:29:37;;;;;;;13.40;9.80;;;;;;;;;;5073191;28;20032;-71
2021/06/20 10:32:23;;;;;;;17.25;9.60;;;;;;;;;;5073187;28;20107;-71
2021/06/20 10:34:53;;;;;;;16.85;9.65;;;;;;;;;;5073194;28;20035;-71
2021/06/20 10:37:20;;;;;;;17.15;9.73;;;;;;;;;;5073225;28;20031;-71
2021/06/20 10:39:47;;;;;;;13.15;9.48;;;;;;;;;;5073161;28;20166;-71
2021/06/20 10:42:13;;;;;;;12.88;10.07;;;;;;;;;;5073130;28;20036;-70
2021/06/20 10:44:53;;;;;;;18.42;9.60;;;;;;;;;;5072298;28;20030;-90
2021/06/20 10:47:45;;;;;;;14.35;10.27;;;;;;;;;;5073250;28;20029;-89
2021/06/20 10:50:12;;;;;;;17.30;9.80;;;;;;;;;;5072084;28;20037;-90
2021/06/20 10:52:39;;;;;;;13.68;10.13;;;;;;;;;;5072820;28;20103;-71
2021/06/20 10:55:06;;;;;;;14.50;9.73;;;;;;;;;;5071652;28;20032;-72
2021/06/20 10:57:32;;;;;;;14.80;9.75;;;;;;;;;;5073148;28;20372;-82
2021/06/20 10:59:59;;;;;;;11.65;10.30;;;;;;;;;;5072445;28;20027;-71
2021/06/20 11:02:34;;;;;;;14.70;10.45;;;;;;;;;;5071850;28;20056;-71
2021/06/20 11:05:01;;;;;;;14.43;10.02;;;;;;;;;;5072635;28;20076;-71
2021/06/20 11:07:28;;;;;;;16.33;10.20;;;;;;;;;;5072365;28;20111;-71
2021/06/20 11:09:55;;;;;;;14.50;10.10;;;;;;;;;;5070924;28;20033;-71
2021/06/20 11:12:21;;;;;;;15.43;9.93;;;;;;;;;;5071710;28;20477;-71
2021/06/20 11:14:51;;;;;;;17.50;10.32;;;;;;;;;;5071319;28;20013;-71
2021/06/20 11:17:18;;;;;;;17.05;9.90;;;;;;;;;;5071111;28;20029;-71
2021/06/20 11:19:44;;;;;;;15.82;8.90;;;;;;;;;;5072186;28;20024;-83
2021/06/20 11:22:11;;;;;;;15.88;9.38;;;;;;;;;;5071001;28;20424;-89
2021/06/20 11:24:40;;;;;;;16.20;9.23;;;;;;;;;;5071795;28;20024;-71
2021/06/20 11:27:06;;;;;;;11.68;9.30;;;;;;;;;;5069556;28;20067;-71
2021/06/20 11:29:41;;;;;;;19.50;9.40;;;;;;;;;;5068720;28;20040;-71
2021/06/20 11:32:13;;;;;;;13.38;8.98;;;;;;;;;;5068756;28;20473;-70
2021/06/20 11:34:42;;;;;;;12.85;8.98;;;;;;;;;;5071943;28;20033;-71
2021/06/20 11:37:15;;;;;;;11.98;9.48;;;;;;;;;;5071318;28;20107;-71
2021/06/20 11:39:42;;;;;;;18.15;9.35;;;;;;;;;;5071382;28;20033;-71
2021/06/20 11:42:09;;;;;;;18.42;8.98;;;;;;;;;;5071555;28;20032;-88
2021/06/20 11:44:35;;;;;;;17.77;9.13;;;;;;;;;;5071536;28;20473;-70
2021/06/20 11:47:01;;;;;;;12.98;9.30;;;;;;;;;;5071069;28;20039;-70
2021/06/20 11:49:27;;;;;;;12.63;9.25;;;;;;;;;;5071623;28;20067;-70
2021/06/20 11:51:56;;;;;;;17.70;8.88;;;;;;;;;;5069756;28;20032;-72
2021/06/20 11:54:25;;;;;;;14.23;8.60;;;;;;;;;;5068666;28;20028;-71
2021/06/20 11:56:51;;;;;;;12.68;9.32;;;;;;;;;;5068446;28;20103;-71
2021/06/20 11:59:27;;;;;;;15.27;9.10;;;;;;;;;;5071539;28;20461;-71
2021/06/20 12:01:53;;;;;;;16.60;9.07;;;;;;;;;;5074334;28;20319;-71
2021/06/20 12:04:21;;;;;;;14.02;8.85;;;;;;;;;;5074385;28;20016;-71
2021/06/20 12:06:47;;;;;;;12.25;8.77;;;;;;;;;;5073855;28;20029;-71
2021/06/20 12:09:14;;;;;;;11.95;8.07;;;;;;;;;;5074603;28;20024;-72
2021/06/20 12:11:40;;;;;;;13.60;8.00;;;;;;;;;;5074047;28;20402;-72
2021/06/20 12:14:07;;;;;;;13.68;8.43;;;;;;;;;;5074807;28;20052;-70
2021/06/20 12:16:44;;;;;;;15.60;8.32;;;;;;;;;;5075247;28;20028;-71
2021/06/20 12:19:13;;;;;;;9.73;8.02;;;;;;;;;;5074804;28;20029;-71
2021/06/20 12:21:39;;;;;;;18.05;7.95;;;;;;;;;;5074190;28;20028;-71
2021/06/20 12:24:07;;;;;;;11.73;7.30;;;;;;;;;;5074549;28;20583;-71
2021/06/20 12:26:33;;;;;;;15.55;7.93;;;;;;;;;;5074100;28;20116;-71
2021/06/20 12:29:02;;;;;;;9.65;8.10;;;;;;;;;;5074299;28;20028;-71
2021/06/20 12:31:28;;;;;;;17.85;8.75;;;;;;;;;;5074868;28;20028;-71
2021/06/20 12:34:00;;;;;;;13.73;7.78;;;;;;;;;;5074865;28;20056;-70
2021/06/20 12:36:27;;;;;;;15.43;8.35;;;;;;;;;;5074420;28;20035;-71
2021/06/20 12:38:54;;;;;;;16.15;8.15;;;;;;;;;;5073061;28;20059;-70
2021/06/20 12:41:20;;;;;;;13.45;8.00;;;;;;;;;;5074252;28;20040;-70
2021/06/20 12:43:59;;;;;;;11.23;7.18;;;;;;;;;;5073259;28;20023;-73
2021/06/20 12:46:32;;;;;;;9.48;6.88;;;;;;;;;;5073698;28;20109;-71
2021/06/20 12:49:04;;;;;;;12.25;7.20;;;;;;;;;;5071223;28;20059;-71
2021/06/20 12:51:41;;;;;;;16.30;7.95;;;;;;;;;;5072554;28;20024;-70
2021/06/20 12:54:11;;;;;;;12.30;6.80;;;;;;;;;;5074764;28;20100;-71
2021/06/20 12:56:37;;;;;;;13.93;7.53;;;;;;;;;;5075148;28;20066;-71
2021/06/20 12:59:08;;;;;;;11.23;7.15;;;;;;;;;;5074963;28;20020;-83
2021/06/20 13:01:50;;;;;;;12.70;7.20;;;;;;;;;;5074035;28;20370;-87
2021/06/20 13:04:17;;;;;;;10.68;6.45;;;;;;;;;;5074147;28;20389;-71
2021/06/20 13:06:44;;;;;;;10.10;6.88;;;;;;;;;;5073662;28;20362;-71
2021/06/20 13:09:11;;;;;;;9.45;6.32;;;;;;;;;;5074494;28;20028;-71
2021/06/20 13:11:38;;;;;;;11.07;6.70;;;;;;;;;;5073666;28;20125;-71
2021/06/20 13:14:11;;;;;;;13.35;6.75;;;;;;;;;;5073329;28;20028;-88
2021/06/20 13:16:37;;;;;;;15.30;7.00;;;;;;;;;;5073308;28;20021;-78
2021/06/20 13:19:03;;;;;;;10.20;6.47;;;;;;;;;;5073165;28;20077;-71
2021/06/20 13:21:29;;;;;;;17.17;6.93;;;;;;;;;;5073154;28;20040;-71
2021/06/20 13:23:55;;;;;;;10.90;6.68;;;;;;;;;;5073384;28;20097;-90
2021/06/20 13:26:21;;;;;;;14.40;7.07;;;;;;;;;;5072731;28;20053;-70
2021/06/20 13:28:47;;;;;;;12.50;6.18;;;;;;;;;;5069849;28;20145;-70
2021/06/20 13:31:13;;;;;;;12.15;6.22;;;;;;;;;;5069931;28;20048;-70
2021/06/20 13:33:39;;;;;;;11.50;6.13;;;;;;;;;;5071483;28;20024;-69
2021/06/20 13:36:05;;;;;;;17.50;7.20;;;;;;;;;;5072578;28;20481;-70
2021/06/20 13:38:31;;;;;;;11.38;6.07;;;;;;;;;;5073195;28;20489;-71
2021/06/20 13:40:57;;;;;;;10.52;5.50;;;;;;;;;;5072796;28;20509;-86
2021/06/20 13:43:23;;;;;;;15.02;6.13;;;;;;;;;;5073342;28;20501;-71
2021/06/20 13:45:51;;;;;;;11.88;6.00;;;;;;;;;;5068391;28;20059;-70
2021/06/20 13:48:17;;;;;;;13.38;6.07;;;;;;;;;;5070324;28;20039;-70
2021/06/20 13:50:43;;;;;;;11.40;5.40;;;;;;;;;;5072190;28;20032;-70
2021/06/20 13:53:09;;;;;;;9.00;5.00;;;;;;;;;;5071829;28;20055;-70
2021/06/20 13:55:35;;;;;;;11.85;5.80;;;;;;;;;;5073296;28;20028;-70
2021/06/20 13:58:01;;;;;;;12.38;4.93;;;;;;;;;;5072601;28;20098;-71
2021/06/20 14:00:28;;;;;;;11.60;5.32;;;;;;;;;;5072741;28;20029;-70
2021/06/20 14:02:54;;;;;;;8.10;4.93;;;;;;;;;;5072533;28;20071;-72
2021/06/20 14:05:21;;;;;;;12.43;4.80;;;;;;;;;;5073012;28;20028;-70
2021/06/20 14:07:48;;;;;;;9.55;5.05;;;;;;;;;;5071825;28;20055;-71
2021/06/20 14:10:15;;;;;;;11.10;5.18;;;;;;;;;;5072577;28;20367;-70
2021/06/20 14:12:42;;;;;;;11.65;5.03;;;;;;;;;;5073383;28;20115;-88
2021/06/20 14:15:08;;;;;;;8.25;5.03;;;;;;;;;;5073459;28;20448;-88
2021/06/20 14:17:35;;;;;;;15.77;5.40;;;;;;;;;;5073791;28;20019;-83
2021/06/20 14:20:01;;;;;;;9.88;5.00;;;;;;;;;;5073649;28;20073;-89